createdAt,value
2023-02-06T00:00:43.226Z,6.45
2023-02-06T00:03:45.790Z,6.32
2023-02-06T00:06:47.245Z,6.57
2023-02-06T00:09:49.749Z,6.17
2023-02-06T00:12:51.797Z,5.93
2023-02-06T00:15:54.571Z,5.95
2023-02-06T00:18:58.781Z,5.78
2023-02-06T00:22:00.374Z,5.80
2023-02-06T00:25:03.446Z,5.70
2023-02-06T00:28:05.668Z,5.75
2023-02-06T00:31:09.288Z,6.30
2023-02-06T00:34:10.842Z,6.00
2023-02-06T00:37:13.439Z,6.30
2023-02-06T00:40:14.757Z,6.50
2023-02-06T00:43:18.460Z,6.03
2023-02-06T00:46:20.159Z,6.15
2023-02-06T00:49:22.708Z,6.18
2023-02-06T00:52:25.237Z,5.80
2023-02-06T00:55:27.812Z,6.37
2023-02-06T00:58:29.878Z,6.35
2023-02-06T01:01:32.579Z,6.88
2023-02-06T01:04:33.855Z,6.43
2023-02-06T01:07:39.197Z,6.53
2023-02-06T01:10:42.244Z,5.87
2023-02-06T01:13:44.154Z,6.80
2023-02-06T01:16:46.707Z,6.40
2023-02-06T01:19:49.280Z,6.43
2023-02-06T01:22:52.437Z,6.60
2023-02-06T01:25:53.723Z,7.25
2023-02-06T01:28:57.453Z,6.90
2023-02-06T01:32:00.002Z,6.53
2023-02-06T01:35:01.362Z,6.30
2023-02-06T01:38:03.932Z,6.47
2023-02-06T01:41:06.858Z,6.65
2023-02-06T01:44:15.398Z,6.45
2023-02-06T01:47:18.995Z,7.10
2023-02-06T01:50:20.304Z,6.70
2023-02-06T01:53:24.073Z,7.05
2023-02-06T01:56:30.659Z,7.10
2023-02-06T01:59:33.811Z,6.57
2023-02-06T02:02:39.972Z,6.17
2023-02-06T02:05:43.311Z,6.27
2023-02-06T02:12:08.250Z,6.40
2023-02-06T02:15:11.590Z,6.50
2023-02-06T02:18:36.285Z,6.60
2023-02-06T02:22:02.618Z,6.47
2023-02-06T02:25:27.803Z,6.32
2023-02-06T02:29:05.412Z,6.22
2023-02-06T02:32:37.458Z,6.50
2023-02-06T02:35:51.764Z,6.43
2023-02-06T02:39:03.039Z,6.50
2023-02-06T02:42:12.765Z,6.72
2023-02-06T02:45:20.678Z,7.10
2023-02-06T02:48:24.851Z,6.40
2023-02-06T02:51:28.131Z,6.40
2023-02-06T02:54:29.888Z,6.37
2023-02-06T02:57:33.224Z,6.80
2023-02-06T03:00:40.838Z,7.32
2023-02-06T03:03:45.652Z,6.65
2023-02-06T03:07:04.400Z,6.87
2023-02-06T03:10:12.835Z,6.80
2023-02-06T03:13:23.641Z,6.78
2023-02-06T03:16:32.888Z,6.60
2023-02-06T03:19:40.951Z,6.65
2023-02-06T03:22:47.008Z,7.60
2023-02-06T03:25:53.914Z,8.07
2023-02-06T03:29:00.850Z,7.75
2023-02-06T03:32:08.160Z,7.43
2023-02-06T03:35:17.175Z,7.30
2023-02-06T03:38:19.167Z,7.23
2023-02-06T03:41:25.952Z,7.57
2023-02-06T03:44:33.591Z,6.90
2023-02-06T03:47:39.164Z,6.90
2023-02-06T03:50:43.894Z,6.97
2023-02-06T03:53:50.684Z,7.40
2023-02-06T03:56:55.624Z,7.10
2023-02-06T03:59:57.042Z,7.03
2023-02-06T04:02:59.637Z,7.50
2023-02-06T04:06:02.354Z,6.95
2023-02-06T04:09:04.481Z,7.17
2023-02-06T04:12:07.592Z,7.03
2023-02-06T04:15:09.584Z,6.70
2023-02-06T04:18:12.080Z,6.95
2023-02-06T04:21:13.355Z,7.25
2023-02-06T04:24:16.653Z,6.40
2023-02-06T04:27:18.090Z,6.03
2023-02-06T04:30:20.726Z,6.05
2023-02-06T04:33:22.018Z,5.65
2023-02-06T04:36:24.671Z,5.45
2023-02-06T04:39:28.546Z,5.13
2023-02-06T04:42:31.138Z,5.03
2023-02-06T04:45:32.457Z,5.18
2023-02-06T04:48:33.923Z,5.80
2023-02-06T04:51:37.046Z,5.38
2023-02-06T04:54:40.249Z,5.23
2023-02-06T04:57:42.976Z,4.87
2023-02-06T05:00:44.267Z,5.05
2023-02-06T05:03:46.937Z,5.70
2023-02-06T05:06:48.270Z,4.88
2023-02-06T05:09:50.265Z,5.13
2023-02-06T05:12:52.866Z,7.10
2023-02-06T05:15:54.244Z,6.00
2023-02-06T05:18:57.943Z,6.13
2023-02-06T05:21:59.276Z,6.43
2023-02-06T05:25:02.675Z,5.43
2023-02-06T05:28:06.619Z,6.40
2023-02-06T05:31:09.481Z,6.13
2023-02-06T05:34:10.795Z,6.28
2023-02-06T05:37:13.761Z,5.63
2023-02-06T05:40:17.417Z,6.77
2023-02-06T05:43:20.022Z,5.47
2023-02-06T05:46:21.358Z,5.97
2023-02-06T05:49:23.961Z,5.70
2023-02-06T05:52:25.248Z,6.45
2023-02-06T06:02:10.699Z,5.90
2023-02-06T06:05:12.026Z,6.47
2023-02-06T06:08:15.521Z,6.03
2023-02-06T06:11:17.481Z,6.23
2023-02-06T06:14:18.865Z,6.17
2023-02-06T06:17:20.962Z,5.80
2023-02-06T06:20:23.992Z,6.70
2023-02-06T06:23:25.292Z,5.93
2023-02-06T06:26:27.539Z,6.13
2023-02-06T06:29:29.194Z,5.13
2023-02-06T06:32:30.482Z,5.85
2023-02-06T06:35:32.198Z,6.28
2023-02-06T06:38:34.046Z,5.38
2023-02-06T06:41:45.643Z,6.44
2023-02-06T06:44:48.192Z,5.75
2023-02-06T06:47:49.492Z,6.10
2023-02-06T06:50:52.028Z,5.90
2023-02-06T06:53:53.296Z,6.25
2023-02-06T06:56:56.513Z,6.35
2023-02-06T06:59:58.164Z,6.53
2023-02-06T07:02:59.498Z,5.87
2023-02-06T07:06:00.896Z,6.22
2023-02-06T07:09:02.197Z,6.22
2023-02-06T07:12:05.146Z,6.63
2023-02-06T07:15:07.276Z,6.18
2023-02-06T07:18:11.378Z,6.37
2023-02-06T07:21:15.091Z,5.85
2023-02-06T07:24:16.377Z,7.05
2023-02-06T07:27:18.900Z,7.63
2023-02-06T07:30:21.843Z,7.18
2023-02-06T07:33:23.158Z,7.50
2023-02-06T07:36:25.691Z,7.10
2023-02-06T07:39:27.244Z,7.22
2023-02-06T07:42:29.207Z,6.72
2023-02-06T07:45:31.077Z,7.15
2023-02-06T07:48:32.638Z,7.10
2023-02-06T07:51:35.705Z,7.25
2023-02-06T07:54:37.021Z,7.20
2023-02-06T07:57:40.221Z,7.30
2023-02-06T08:00:41.650Z,6.97
2023-02-06T08:03:42.985Z,7.77
2023-02-06T08:06:46.075Z,7.05
2023-02-06T08:09:47.648Z,7.95
2023-02-06T08:12:50.801Z,7.05
2023-02-06T08:15:52.321Z,7.65
2023-02-06T08:18:54.857Z,6.90
2023-02-06T08:21:56.311Z,6.40
2023-02-06T08:24:57.912Z,7.32
2023-02-06T08:28:00.181Z,7.13
2023-02-06T08:31:08.498Z,6.97
2023-02-06T08:34:13.840Z,6.40
2023-02-06T08:37:15.359Z,6.40
2023-02-06T08:40:17.270Z,6.43
2023-02-06T08:43:19.245Z,7.35
2023-02-06T08:46:22.332Z,7.20
2023-02-06T08:49:26.115Z,6.70
2023-02-06T08:52:28.581Z,6.90
2023-02-06T08:55:30.113Z,7.28
2023-02-06T08:58:33.985Z,7.03
2023-02-06T09:01:36.629Z,6.57
2023-02-06T09:04:39.552Z,6.83
2023-02-06T09:07:41.134Z,6.57
2023-02-06T09:10:43.805Z,7.60
2023-02-06T09:13:49.133Z,7.38
2023-02-06T09:16:51.974Z,9.00
2023-02-06T09:19:53.272Z,8.97
2023-02-06T09:22:54.522Z,7.50
2023-02-06T09:25:55.872Z,7.38
2023-02-06T09:29:00.788Z,7.38
2023-02-06T09:32:02.107Z,7.90
2023-02-06T09:35:05.178Z,8.17
2023-02-06T09:38:06.466Z,8.13
2023-02-06T09:41:17.034Z,8.10
2023-02-06T09:44:23.635Z,6.78
2023-02-06T09:47:28.428Z,8.90
2023-02-06T09:50:40.645Z,9.07
2023-02-06T09:53:54.410Z,9.50
2023-02-06T09:57:06.358Z,9.88
2023-02-06T10:00:17.938Z,8.77
2023-02-06T10:03:48.588Z,8.25
2023-02-06T10:06:57.200Z,7.93
2023-02-06T10:10:03.784Z,8.60
2023-02-06T10:13:13.166Z,8.63
2023-02-06T10:16:32.291Z,8.25
2023-02-06T10:19:42.911Z,8.80
2023-02-06T10:22:51.797Z,8.70
2023-02-06T10:26:03.501Z,8.55
2023-02-06T10:29:06.205Z,8.05
2023-02-06T10:32:21.593Z,8.25
2023-02-06T10:35:32.515Z,7.10
2023-02-06T10:38:51.992Z,7.30
2023-02-06T10:42:02.200Z,6.63
2023-02-06T10:45:57.326Z,7.13
2023-02-06T10:49:04.484Z,7.22
2023-02-06T10:52:17.844Z,6.55
2023-02-06T10:55:22.985Z,6.30
2023-02-06T10:58:28.355Z,6.03
2023-02-06T11:01:35.251Z,6.60
2023-02-06T11:04:39.923Z,6.13
2023-02-06T11:07:44.655Z,8.38
2023-02-06T11:10:46.236Z,7.30
2023-02-06T11:13:50.312Z,7.60
2023-02-06T11:16:53.688Z,6.85
2023-02-06T11:20:04.455Z,6.30
2023-02-06T11:23:15.719Z,7.57
2023-02-06T11:26:20.222Z,7.23
2023-02-06T11:29:24.946Z,6.63
2023-02-06T11:32:35.374Z,8.63
2023-02-06T11:35:40.657Z,10.52
2023-02-06T11:38:55.408Z,8.90
2023-02-06T11:41:59.297Z,7.73
2023-02-06T11:45:18.119Z,7.00
2023-02-06T11:48:38.657Z,7.60
2023-02-06T11:51:52.004Z,9.27
2023-02-06T11:54:55.239Z,8.40
2023-02-06T11:58:07.987Z,7.67
2023-02-06T12:01:18.331Z,8.50
2023-02-06T12:04:25.391Z,7.65
2023-02-06T12:07:32.912Z,8.15
2023-02-06T12:10:40.171Z,7.82
2023-02-06T12:13:47.221Z,7.50
2023-02-06T12:16:50.452Z,7.55
2023-02-06T12:20:09.274Z,7.57
2023-02-06T12:23:18.793Z,7.20
2023-02-06T12:26:24.594Z,10.02
2023-02-06T12:29:29.947Z,8.73
2023-02-06T12:32:34.325Z,7.40
2023-02-06T12:35:45.086Z,9.07
2023-02-06T12:38:52.535Z,8.32
2023-02-06T12:42:10.907Z,7.50
2023-02-06T12:45:28.218Z,8.43
2023-02-06T12:48:38.151Z,8.38
2023-02-06T12:51:50.762Z,8.48
2023-02-06T12:55:00.010Z,9.05
2023-02-06T12:58:02.481Z,8.13
2023-02-06T13:01:33.033Z,7.77
2023-02-06T13:04:38.053Z,8.23
2023-02-06T13:07:49.328Z,8.43
2023-02-06T13:11:02.127Z,8.32
2023-02-06T13:14:06.867Z,9.60
2023-02-06T13:17:12.098Z,8.43
2023-02-06T13:20:16.122Z,9.45
2023-02-06T13:23:22.884Z,8.75
2023-02-06T13:26:57.867Z,8.70
2023-02-06T13:30:37.136Z,9.05
2023-02-06T13:33:41.691Z,8.07
2023-02-06T13:36:49.786Z,9.48
2023-02-06T13:40:18.389Z,9.75
2023-02-06T13:43:26.805Z,9.00
2023-02-06T13:46:51.607Z,10.20
2023-02-06T13:50:28.698Z,8.87
2023-02-06T13:53:46.269Z,8.25
2023-02-06T13:57:11.323Z,8.02
2023-02-06T14:00:17.346Z,8.68
2023-02-06T14:03:25.081Z,8.90
2023-02-06T14:06:46.896Z,8.07
2023-02-06T14:10:20.617Z,8.52
2023-02-06T14:13:45.660Z,9.13
2023-02-06T14:16:55.315Z,8.05
2023-02-06T14:20:08.417Z,9.13
2023-02-06T14:23:20.018Z,7.67
2023-02-06T14:26:32.135Z,9.05
2023-02-06T14:29:44.809Z,9.30
2023-02-06T14:32:57.800Z,8.90
2023-02-06T14:36:14.438Z,8.50
2023-02-06T14:39:40.831Z,7.83
2023-02-06T14:42:44.973Z,8.15
2023-02-06T14:46:05.532Z,8.55
2023-02-06T14:49:16.054Z,7.82
2023-02-06T14:52:21.603Z,7.40
2023-02-06T14:55:34.576Z,8.37
2023-02-06T14:58:36.098Z,8.43
2023-02-06T15:01:37.563Z,7.85
2023-02-06T15:04:46.836Z,8.05
2023-02-06T15:07:57.151Z,8.10
2023-02-06T15:11:01.454Z,7.60
2023-02-06T15:14:05.787Z,8.85
2023-02-06T15:17:08.150Z,7.65
2023-02-06T15:20:25.732Z,7.82
2023-02-06T15:23:43.346Z,7.32
2023-02-06T15:26:53.597Z,7.73
2023-02-06T15:29:55.671Z,8.02
2023-02-06T15:32:58.160Z,7.63
2023-02-06T15:36:02.578Z,7.25
2023-02-06T15:39:06.993Z,7.40
2023-02-06T15:42:10.279Z,7.60
2023-02-06T15:45:19.544Z,7.63
2023-02-06T15:48:25.262Z,7.82
2023-02-06T15:51:29.371Z,7.13
2023-02-06T15:54:33.775Z,8.45
2023-02-06T15:57:40.305Z,7.40
2023-02-06T16:00:43.199Z,7.15
2023-02-06T16:03:45.333Z,7.10
2023-02-06T16:06:58.486Z,7.57
2023-02-06T16:10:06.244Z,7.38
2023-02-06T16:13:12.206Z,6.83
2023-02-06T16:16:20.036Z,6.47
2023-02-06T16:19:38.189Z,6.70
2023-02-06T16:22:39.598Z,5.80
2023-02-06T16:25:41.828Z,6.25
2023-02-06T16:28:54.547Z,6.30
2023-02-06T16:31:59.562Z,7.05
2023-02-06T16:38:21.782Z,7.13
2023-02-06T16:41:29.836Z,8.30
2023-02-06T16:44:44.081Z,7.90
2023-02-06T16:47:47.803Z,7.43
2023-02-06T16:50:49.241Z,6.85
2023-02-06T16:53:52.662Z,6.47
2023-02-06T16:56:56.985Z,6.20
2023-02-06T16:59:58.539Z,6.10
2023-02-06T17:03:00.227Z,6.72
2023-02-06T17:06:02.659Z,6.47
2023-02-06T17:09:08.324Z,5.78
2023-02-06T17:12:13.119Z,6.72
2023-02-06T17:15:15.560Z,6.10
2023-02-06T17:18:18.210Z,6.15
2023-02-06T17:21:28.954Z,6.67
2023-02-06T17:24:30.236Z,6.50
2023-02-06T17:27:32.438Z,6.82
2023-02-06T17:30:35.414Z,7.10
2023-02-06T17:33:38.178Z,6.70
2023-02-06T17:36:41.158Z,6.60
2023-02-06T17:39:43.527Z,6.50
2023-02-06T17:42:46.670Z,6.63
2023-02-06T17:45:49.079Z,7.10
2023-02-06T17:48:51.448Z,7.35
2023-02-06T17:51:53.767Z,7.50
2023-02-06T17:54:55.121Z,7.07
2023-02-06T17:57:58.149Z,7.35
2023-02-06T18:01:00.653Z,7.45
2023-02-06T18:04:03.378Z,7.53
2023-02-06T18:07:05.794Z,7.47
2023-02-06T18:10:07.980Z,8.45
2023-02-06T18:13:10.992Z,8.23
2023-02-06T18:16:14.554Z,8.98
2023-02-06T18:19:19.330Z,8.90
2023-02-06T18:22:22.679Z,8.10
2023-02-06T18:25:25.041Z,8.45
2023-02-06T18:28:28.168Z,9.27
2023-02-06T18:31:32.493Z,8.68
2023-02-06T18:34:35.483Z,9.35
2023-02-06T18:37:37.990Z,10.50
2023-02-06T18:40:42.103Z,9.90
2023-02-06T18:43:45.115Z,10.02
2023-02-06T18:46:46.490Z,9.25
2023-02-06T18:49:47.973Z,10.32
2023-02-06T18:52:50.268Z,10.37
2023-02-06T18:55:58.122Z,9.77
2023-02-06T18:59:01.332Z,11.50
2023-02-06T19:02:04.102Z,11.10
2023-02-06T19:05:07.151Z,10.73
2023-02-06T19:08:08.432Z,10.87
2023-02-06T19:11:10.281Z,11.05
2023-02-06T19:14:16.086Z,10.88
2023-02-06T19:17:17.371Z,12.23
2023-02-06T19:23:39.839Z,11.13
2023-02-06T19:26:42.844Z,11.15
2023-02-06T19:29:45.058Z,11.25
2023-02-06T19:32:49.175Z,10.30
2023-02-06T19:35:51.468Z,11.50
2023-02-06T19:38:56.052Z,11.50
2023-02-06T19:41:57.325Z,11.10
2023-02-06T19:45:00.594Z,11.60
2023-02-06T19:48:01.931Z,11.25
2023-02-06T19:54:25.595Z,10.50
2023-02-06T19:57:28.264Z,10.98
2023-02-06T20:00:31.485Z,12.93
2023-02-06T20:03:33.158Z,14.45
2023-02-06T20:06:38.531Z,14.77
2023-02-06T20:09:41.991Z,14.80
2023-02-06T20:12:44.783Z,13.63
2023-02-06T20:19:09.941Z,11.30
2023-02-06T20:22:12.582Z,12.05
2023-02-06T20:25:14.045Z,10.87
2023-02-06T20:28:16.760Z,10.90
2023-02-06T20:31:19.960Z,10.90
2023-02-06T20:34:21.764Z,12.82
2023-02-06T20:37:23.740Z,13.68
2023-02-06T20:40:25.040Z,12.93
2023-02-06T20:43:26.488Z,13.45
2023-02-06T20:46:31.817Z,12.38
2023-02-06T20:49:33.355Z,11.70
2023-02-06T20:52:36.575Z,11.88
2023-02-06T20:55:40.897Z,11.77
2023-02-06T20:58:43.119Z,12.65
2023-02-06T21:01:45.249Z,11.90
2023-02-06T21:04:47.809Z,11.27
2023-02-06T21:07:50.359Z,11.63
2023-02-06T21:10:52.397Z,14.07
2023-02-06T21:13:53.726Z,14.77
2023-02-06T21:16:56.121Z,13.60
2023-02-06T21:19:57.521Z,13.65
2023-02-06T21:23:00.043Z,14.35
2023-02-06T21:26:01.510Z,12.67
2023-02-06T21:29:03.764Z,12.48
2023-02-06T21:32:13.726Z,11.85
2023-02-06T21:35:16.915Z,14.07
2023-02-06T21:38:19.955Z,15.82
2023-02-06T21:41:21.296Z,16.23
2023-02-06T21:44:23.833Z,16.80
2023-02-06T21:47:25.845Z,16.33
2023-02-06T21:50:28.534Z,16.52
2023-02-06T21:53:31.053Z,16.75
2023-02-06T21:56:32.372Z,16.30
2023-02-06T21:59:34.905Z,16.05
2023-02-06T22:02:37.687Z,15.60
2023-02-06T22:05:40.597Z,15.45
2023-02-06T22:08:43.629Z,14.57
2023-02-06T22:11:46.560Z,14.57
2023-02-06T22:14:47.878Z,14.55
2023-02-06T22:17:49.833Z,15.95
2023-02-06T22:21:03.598Z,15.85
2023-02-06T22:24:08.126Z,13.55
2023-02-06T22:27:09.674Z,15.47
2023-02-06T22:30:13.283Z,15.60
2023-02-06T22:33:15.269Z,15.32
2023-02-06T22:36:20.202Z,15.95
2023-02-06T22:39:22.760Z,16.83
2023-02-06T22:42:24.081Z,15.60
2023-02-06T22:45:26.648Z,15.48
2023-02-06T22:48:28.758Z,14.55
2023-02-06T22:51:31.353Z,15.13
2023-02-06T22:54:32.617Z,13.95
2023-02-06T22:57:37.642Z,14.13
2023-02-06T23:04:02.895Z,13.98
2023-02-06T23:07:05.906Z,13.82
2023-02-06T23:10:08.772Z,14.07
2023-02-06T23:13:10.066Z,13.57
2023-02-06T23:16:12.996Z,14.35
2023-02-06T23:19:15.284Z,14.68
2023-02-06T23:22:24.939Z,12.71
2023-02-06T23:25:27.589Z,13.18
2023-02-06T23:28:29.167Z,13.60
2023-02-06T23:31:32.401Z,13.73
2023-02-06T23:34:34.369Z,13.68
2023-02-06T23:37:36.939Z,12.82
2023-02-06T23:40:39.682Z,13.02
2023-02-06T23:43:42.213Z,13.20
2023-02-06T23:46:44.761Z,13.40
2023-02-06T23:49:46.722Z,12.95
2023-02-06T23:52:49.545Z,13.05
2023-02-06T23:55:52.277Z,12.43
2023-02-06T23:58:54.619Z,12.83
